createdAt,value
2018-06-19T00:00:02.887Z,0.00
2018-06-19T00:01:02.652Z,0.00
2018-06-19T00:02:02.558Z,0.00
2018-06-19T00:03:02.579Z,0.00
2018-06-19T00:04:02.558Z,0.00
2018-06-19T00:05:02.587Z,0.00
2018-06-19T00:06:02.606Z,0.00
2018-06-19T00:08:02.442Z,0.00
2018-06-19T00:09:02.493Z,0.00
2018-06-19T00:10:02.481Z,0.00
2018-06-19T00:11:02.463Z,0.00
2018-06-19T00:12:02.421Z,0.00
2018-06-19T00:13:02.356Z,0.00
2018-06-19T00:14:02.725Z,0.00
2018-06-19T00:15:02.411Z,0.00
2018-06-19T00:16:02.397Z,0.00
2018-06-19T00:17:02.424Z,0.00
2018-06-19T00:18:02.392Z,0.00
2018-06-19T00:19:02.304Z,0.00
2018-06-19T00:20:02.266Z,0.00
2018-06-19T00:21:02.568Z,0.00
2018-06-19T00:22:02.240Z,0.00
2018-06-19T00:23:02.226Z,0.00
2018-06-19T00:24:02.338Z,0.00
2018-06-19T00:25:02.230Z,0.00
2018-06-19T00:27:02.516Z,0.00
2018-06-19T00:28:02.234Z,0.00
2018-06-19T00:29:02.132Z,0.00
2018-06-19T00:30:02.181Z,0.00
2018-06-19T00:31:02.110Z,0.00
2018-06-19T00:32:02.101Z,0.00
2018-06-19T00:33:02.095Z,0.00
2018-06-19T00:34:02.393Z,0.00
2018-06-19T00:35:02.170Z,0.00
2018-06-19T00:36:02.121Z,0.00
2018-06-19T00:37:02.121Z,0.00
2018-06-19T00:38:02.014Z,0.00
2018-06-19T00:39:01.993Z,0.00
2018-06-19T00:40:01.993Z,0.00
2018-06-19T00:41:02.280Z,0.00
2018-06-19T00:42:02.120Z,0.00
2018-06-19T00:43:01.948Z,0.00
2018-06-19T00:44:01.938Z,0.00
2018-06-19T00:45:01.924Z,0.00
2018-06-19T00:46:01.912Z,0.00
2018-06-19T00:47:01.972Z,0.00
2018-06-19T00:48:02.239Z,0.00
2018-06-19T00:49:01.868Z,0.00
2018-06-19T00:50:01.928Z,0.00
2018-06-19T00:51:01.930Z,0.00
2018-06-19T00:52:01.825Z,0.00
2018-06-19T00:53:01.810Z,0.00
2018-06-19T00:54:02.159Z,0.00
2018-06-19T00:55:01.776Z,0.00
2018-06-19T00:56:01.761Z,0.00
2018-06-19T00:57:01.752Z,0.00
2018-06-19T00:58:01.743Z,0.00
2018-06-19T00:59:01.741Z,0.00
2018-06-19T01:00:02.065Z,0.00
2018-06-19T01:01:01.702Z,0.00
2018-06-19T01:02:01.686Z,0.00
2018-06-19T01:03:01.675Z,0.00
2018-06-19T01:06:02.004Z,0.00
2018-06-19T01:07:01.621Z,0.00
2018-06-19T01:08:01.611Z,0.00
2018-06-19T01:10:01.593Z,0.00
2018-06-19T01:12:01.897Z,0.00
2018-06-19T01:13:01.523Z,0.00
2018-06-19T01:14:01.562Z,0.00
2018-06-19T01:16:01.488Z,0.00
2018-06-19T01:17:01.471Z,0.00
2018-06-19T01:18:01.807Z,0.00
2018-06-19T01:19:01.520Z,0.00
2018-06-19T01:20:01.420Z,0.00
2018-06-19T01:21:01.486Z,0.00
2018-06-19T01:22:01.401Z,0.00
2018-06-19T01:24:01.732Z,0.00
2018-06-19T01:25:01.364Z,0.00
2018-06-19T01:26:01.362Z,0.00
2018-06-19T01:27:01.345Z,0.00
2018-06-19T01:28:01.324Z,0.00
2018-06-19T01:29:01.376Z,0.00
2018-06-19T01:30:01.880Z,0.00
2018-06-19T01:31:01.266Z,0.00
2018-06-19T01:32:01.363Z,0.00
2018-06-19T01:33:01.244Z,0.00
2018-06-19T01:34:01.233Z,0.00
2018-06-19T01:35:01.215Z,0.96
2018-06-19T01:36:01.385Z,1.72
2018-06-19T01:37:01.546Z,1.62
2018-06-19T01:38:01.199Z,2.11
2018-06-19T01:39:01.179Z,2.11
2018-06-19T01:40:01.155Z,1.62
2018-06-19T01:41:01.149Z,1.53
2018-06-19T01:42:01.165Z,1.34
2018-06-19T01:44:01.390Z,0.67
2018-06-19T01:45:01.134Z,0.00
2018-06-19T01:46:01.066Z,0.00
2018-06-19T01:47:01.045Z,0.00
2018-06-19T01:48:01.090Z,0.00
2018-06-19T01:49:01.015Z,0.00
2018-06-19T01:50:01.001Z,0.00
2018-06-19T01:51:02.293Z,0.00
2018-06-19T01:52:00.980Z,0.00
2018-06-19T01:54:00.994Z,0.00
2018-06-19T01:55:01.036Z,0.00
2018-06-19T01:56:00.996Z,0.00
2018-06-19T01:57:00.915Z,0.00
2018-06-19T01:58:01.277Z,0.00
2018-06-19T01:59:00.945Z,0.00
2018-06-19T02:00:01.010Z,0.00
2018-06-19T02:01:00.940Z,0.00
2018-06-19T02:02:00.824Z,0.00
2018-06-19T02:03:00.815Z,0.00
2018-06-19T02:04:00.792Z,0.00
2018-06-19T02:06:00.820Z,0.00
2018-06-19T02:07:00.753Z,0.00
2018-06-19T02:08:00.749Z,0.00
2018-06-19T02:09:00.725Z,0.00
2018-06-19T02:10:00.803Z,0.00
2018-06-19T02:11:00.696Z,0.00
2018-06-19T02:12:01.069Z,0.00
2018-06-19T02:13:00.672Z,0.00
2018-06-19T02:14:00.699Z,0.00
2018-06-19T02:15:00.654Z,0.00
2018-06-19T02:17:00.610Z,0.00
2018-06-19T02:18:00.757Z,0.00
2018-06-19T02:19:00.982Z,0.00
2018-06-19T02:20:00.568Z,0.00
2018-06-19T02:21:00.551Z,0.00
2018-06-19T02:22:00.618Z,0.00
2018-06-19T02:25:00.843Z,0.00
2018-06-19T02:26:00.498Z,0.00
2018-06-19T02:27:00.490Z,0.00
2018-06-19T02:28:00.481Z,0.00
2018-06-19T02:29:00.436Z,0.00
2018-06-19T02:30:00.479Z,0.00
2018-06-19T02:31:00.813Z,0.00
2018-06-19T02:32:00.383Z,0.00
2018-06-19T02:33:00.367Z,0.00
2018-06-19T02:34:00.419Z,0.00
2018-06-19T02:35:00.336Z,0.00
2018-06-19T02:36:00.339Z,0.00
2018-06-19T02:37:00.669Z,0.00
2018-06-19T02:38:00.353Z,0.00
2018-06-19T02:39:00.283Z,0.00
2018-06-19T02:40:00.544Z,0.00
2018-06-19T02:41:00.461Z,0.00
2018-06-19T02:42:00.256Z,0.00
2018-06-19T02:43:00.577Z,0.00
2018-06-19T02:44:00.286Z,0.00
2018-06-19T02:45:00.199Z,0.00
2018-06-19T02:47:00.160Z,0.00
2018-06-19T02:48:00.148Z,0.00
2018-06-19T02:49:00.483Z,0.00
2018-06-19T02:50:00.124Z,0.00
2018-06-19T02:51:00.121Z,0.00
2018-06-19T02:52:00.098Z,0.00
2018-06-19T02:53:00.163Z,0.00
2018-06-19T02:54:00.058Z,0.00
2018-06-19T02:56:00.035Z,0.00
2018-06-19T02:57:00.031Z,0.00
2018-06-19T02:58:00.009Z,0.00
2018-06-19T02:59:00.101Z,0.00
2018-06-19T02:59:59.997Z,0.00
2018-06-19T03:02:00.641Z,0.00
2018-06-19T03:03:00.336Z,0.00
2018-06-19T03:03:59.992Z,0.00
2018-06-19T03:04:59.897Z,0.00
2018-06-19T03:05:59.983Z,0.00
2018-06-19T03:06:59.872Z,0.00
2018-06-19T03:09:00.251Z,0.00
2018-06-19T03:09:59.820Z,0.00
2018-06-19T03:10:59.817Z,0.00
2018-06-19T03:11:59.889Z,0.00
2018-06-19T03:12:59.782Z,0.00
2018-06-19T03:13:59.846Z,0.00
2018-06-19T03:14:59.875Z,0.00
2018-06-19T03:16:00.034Z,0.00
2018-06-19T03:16:59.715Z,0.00
2018-06-19T03:17:59.798Z,0.00
2018-06-19T03:18:59.687Z,0.00
2018-06-19T03:19:59.735Z,0.00
2018-06-19T03:20:59.732Z,0.00
2018-06-19T03:21:59.648Z,0.00
2018-06-19T03:22:59.943Z,0.00
2018-06-19T03:23:59.620Z,0.00
2018-06-19T03:24:59.604Z,0.00
2018-06-19T03:25:59.710Z,0.00
2018-06-19T03:26:59.633Z,0.00
2018-06-19T03:27:59.638Z,0.00
2018-06-19T03:28:59.837Z,0.00
2018-06-19T03:29:59.821Z,0.00
2018-06-19T03:30:59.621Z,0.00
2018-06-19T03:31:59.591Z,0.00
2018-06-19T03:32:59.645Z,0.00
2018-06-19T03:33:59.551Z,0.00
2018-06-19T03:34:59.543Z,0.00
2018-06-19T03:35:59.432Z,0.00
2018-06-19T03:36:59.802Z,0.00
2018-06-19T03:37:59.410Z,0.00
2018-06-19T03:38:59.520Z,0.00
2018-06-19T03:41:59.350Z,0.00
2018-06-19T03:42:59.336Z,0.00
2018-06-19T03:43:59.695Z,0.00
2018-06-19T03:44:59.460Z,0.00
2018-06-19T03:46:59.460Z,0.00
2018-06-19T03:47:59.259Z,0.00
2018-06-19T03:48:59.244Z,0.00
2018-06-19T03:49:59.234Z,0.00
2018-06-19T03:50:59.572Z,0.00
2018-06-19T03:51:59.200Z,0.00
2018-06-19T03:52:59.182Z,1.25
2018-06-19T03:53:59.176Z,1.25
2018-06-19T03:54:59.165Z,2.01
2018-06-19T03:55:59.213Z,1.91
2018-06-19T03:56:59.469Z,3.06
2018-06-19T03:57:59.185Z,4.02
2018-06-19T03:58:59.091Z,3.74
2018-06-19T03:59:59.157Z,3.64
2018-06-19T04:00:59.245Z,3.74
2018-06-19T04:01:59.151Z,4.40
2018-06-19T04:02:59.379Z,4.88
2018-06-19T04:03:59.017Z,4.98
2018-06-19T04:04:59.006Z,4.50
2018-06-19T04:05:58.989Z,6.03
2018-06-19T04:06:59.117Z,7.56
2018-06-19T04:07:58.975Z,9.48
2018-06-19T04:08:59.327Z,7.95
2018-06-19T04:09:59.011Z,7.86
2018-06-19T04:10:59.011Z,7.95
2018-06-19T04:11:58.905Z,8.81
2018-06-19T04:12:58.900Z,8.91
2018-06-19T04:13:58.880Z,10.72
2018-06-19T04:14:59.218Z,10.92
2018-06-19T04:15:58.849Z,10.93
2018-06-19T04:16:58.910Z,12.55
2018-06-19T04:17:58.823Z,12.46
2018-06-19T04:18:58.882Z,13.23
2018-06-19T04:19:58.792Z,14.08
2018-06-19T04:21:58.772Z,16.58
2018-06-19T04:22:58.752Z,18.21
2018-06-19T04:23:58.738Z,17.73
2018-06-19T04:24:58.800Z,17.73
2018-06-19T04:25:58.820Z,19.17
2018-06-19T04:26:59.051Z,18.78
2018-06-19T04:29:58.649Z,19.93
2018-06-19T04:30:58.712Z,23.19
2018-06-19T04:31:58.620Z,22.04
2018-06-19T04:32:58.656Z,22.61
2018-06-19T04:33:58.971Z,24.24
2018-06-19T04:34:58.586Z,24.24
2018-06-19T04:35:58.572Z,24.24
2018-06-19T04:36:58.600Z,25.40
2018-06-19T04:37:58.542Z,25.20
2018-06-19T04:38:58.627Z,26.26
2018-06-19T04:39:58.550Z,27.22
2018-06-19T04:40:58.810Z,27.03
2018-06-19T04:41:58.605Z,28.46
2018-06-19T04:42:58.471Z,28.08
2018-06-19T04:43:59.996Z,26.83
2018-06-19T04:44:58.535Z,29.33
2018-06-19T04:45:58.473Z,29.42
2018-06-19T04:46:58.466Z,31.34
2018-06-19T04:47:58.701Z,30.86
2018-06-19T04:48:58.464Z,31.72
2018-06-19T04:50:58.510Z,33.25
2018-06-19T04:51:58.402Z,35.17
2018-06-19T04:52:58.847Z,34.22
2018-06-19T04:53:58.385Z,34.61
2018-06-19T04:54:58.874Z,35.19
2018-06-19T04:55:59.020Z,36.63
2018-06-19T04:56:58.755Z,34.02
2018-06-19T04:57:58.549Z,35.10
2018-06-19T04:59:58.280Z,36.04
2018-06-19T05:00:59.115Z,36.51
2018-06-19T05:01:58.565Z,36.91
2018-06-19T05:02:58.184Z,36.91
2018-06-19T05:03:58.177Z,37.68
2018-06-19T05:04:58.237Z,37.11
2018-06-19T05:06:01.962Z,37.66
2018-06-19T05:06:58.128Z,36.34
2018-06-19T05:07:58.177Z,36.34
2018-06-19T05:08:58.496Z,36.53
2018-06-19T05:09:58.104Z,36.15
2018-06-19T05:10:58.101Z,39.22
2018-06-19T05:11:58.052Z,37.49
2018-06-19T05:12:58.055Z,38.74
2018-06-19T05:13:58.108Z,39.89
2018-06-19T05:14:58.028Z,40.17
2018-06-19T05:15:58.312Z,39.41
2018-06-19T05:16:58.092Z,42.00
2018-06-19T05:17:57.998Z,43.15
2018-06-19T05:18:57.971Z,41.80
2018-06-19T05:19:58.007Z,42.10
2018-06-19T05:21:58.247Z,42.86
2018-06-19T05:22:57.903Z,42.86
2018-06-19T05:23:57.897Z,42.86
2018-06-19T05:24:57.893Z,44.40
2018-06-19T05:25:57.915Z,47.94
2018-06-19T05:27:58.260Z,44.97
2018-06-19T05:28:57.952Z,46.89
2018-06-19T05:29:58.041Z,46.89
2018-06-19T05:30:57.902Z,45.74
2018-06-19T05:31:57.919Z,46.60
2018-06-19T05:32:57.853Z,47.17
2018-06-19T05:33:58.139Z,49.00
2018-06-19T05:34:57.928Z,49.57
2018-06-19T05:35:57.860Z,48.33
2018-06-19T05:36:57.843Z,50.43
2018-06-19T05:37:57.876Z,51.04
2018-06-19T05:38:57.690Z,52.64
2018-06-19T05:39:58.016Z,54.58
2018-06-19T05:40:57.734Z,51.51
2018-06-19T05:54:02.284Z,57.65
2018-06-19T05:55:02.271Z,54.78
2018-06-19T05:56:02.253Z,56.31
2018-06-19T05:57:02.240Z,55.07
2018-06-19T05:58:02.238Z,56.79
2018-06-19T05:59:02.516Z,57.85
2018-06-19T06:00:02.318Z,55.16
2018-06-19T06:01:02.189Z,55.16
2018-06-19T06:02:02.199Z,55.16
2018-06-19T06:03:02.201Z,57.28
2018-06-19T06:04:02.155Z,58.81
2018-06-19T06:05:02.187Z,59.00
2018-06-19T06:06:02.419Z,60.53
2018-06-19T06:07:02.121Z,60.15
2018-06-19T06:08:02.125Z,60.15
2018-06-19T06:09:02.557Z,58.36
2018-06-19T06:10:02.075Z,60.92
2018-06-19T06:11:02.056Z,60.85
2018-06-19T06:12:02.343Z,61.59
2018-06-19T06:13:02.039Z,62.07
2018-06-19T06:14:02.072Z,61.91
2018-06-19T06:15:02.083Z,63.12
2018-06-19T06:17:01.985Z,62.36
2018-06-19T06:18:02.279Z,61.43
2018-06-19T06:19:01.975Z,63.06
2018-06-19T06:20:02.120Z,64.02
2018-06-19T06:21:02.438Z,63.92
2018-06-19T06:22:01.928Z,65.56
2018-06-19T06:23:01.903Z,68.73
2018-06-19T06:24:02.231Z,65.65
2018-06-19T06:25:01.882Z,66.33
2018-06-19T06:26:01.863Z,65.75
2018-06-19T06:27:01.938Z,65.27
2018-06-19T06:28:01.858Z,66.23
2018-06-19T06:29:02.045Z,68.15
2018-06-19T06:30:02.618Z,68.82
2018-06-19T06:31:07.099Z,68.91
2018-06-19T06:32:02.316Z,68.15
2018-06-19T06:33:01.803Z,69.20
2018-06-19T06:34:01.773Z,70.68
2018-06-19T06:35:01.753Z,70.07
2018-06-19T06:36:01.783Z,71.80
2018-06-19T06:37:02.073Z,71.70
2018-06-19T06:38:01.707Z,72.50
2018-06-19T06:39:01.809Z,74.33
2018-06-19T06:41:01.685Z,74.04
2018-06-19T06:42:01.710Z,75.48
2018-06-19T06:43:01.959Z,74.62
2018-06-19T06:44:01.683Z,74.33
2018-06-19T06:45:01.632Z,75.20
2018-06-19T06:46:01.603Z,76.06
2018-06-19T06:47:01.607Z,74.23
2018-06-19T06:48:01.610Z,73.75
2018-06-19T06:49:01.879Z,74.52
2018-06-19T06:50:01.607Z,75.57
2018-06-19T06:51:01.559Z,74.13
2018-06-19T06:52:01.547Z,74.52
2018-06-19T06:53:01.519Z,74.13
2018-06-19T06:54:01.546Z,77.01
2018-06-19T06:55:01.811Z,73.46
2018-06-19T06:56:01.512Z,72.79
2018-06-19T06:57:01.513Z,75.38
2018-06-19T06:58:01.460Z,75.23
2018-06-19T06:59:01.457Z,73.27
2018-06-19T07:00:01.549Z,74.90
2018-06-19T07:01:01.731Z,76.15
2018-06-19T07:02:01.415Z,74.46
2018-06-19T07:03:01.405Z,75.29
2018-06-19T07:04:01.397Z,75.67
2018-06-19T07:05:01.398Z,76.44
2018-06-19T07:06:01.415Z,76.64
2018-06-19T07:07:01.694Z,75.96
2018-06-19T07:08:01.349Z,75.38
2018-06-19T07:09:01.328Z,75.87
2018-06-19T07:10:01.455Z,74.43
2018-06-19T07:11:01.310Z,76.92
2018-06-19T07:12:01.290Z,75.20
2018-06-19T07:13:01.598Z,74.43
2018-06-19T07:14:01.273Z,72.69
2018-06-19T07:15:01.264Z,74.52
2018-06-19T07:16:01.267Z,74.81
2018-06-19T07:17:01.255Z,76.34
2018-06-19T07:18:01.219Z,74.71
2018-06-19T07:19:01.579Z,74.04
2018-06-19T07:20:01.201Z,73.46
2018-06-19T07:21:01.508Z,75.42
2018-06-19T07:22:01.174Z,76.92
2018-06-19T07:23:01.158Z,77.01
2018-06-19T07:24:01.151Z,76.06
2018-06-19T07:25:01.434Z,76.25
2018-06-19T07:26:01.222Z,74.52
2018-06-19T07:27:01.111Z,74.04
2018-06-19T07:28:01.102Z,74.04
2018-06-19T07:29:01.098Z,73.66
2018-06-19T07:30:01.074Z,76.00
2018-06-19T07:31:01.356Z,78.30
2018-06-19T07:32:01.092Z,77.06
2018-06-19T07:33:01.274Z,79.36
2018-06-19T07:34:01.028Z,81.48
2018-06-19T07:35:01.009Z,80.22
2018-06-19T07:36:01.018Z,81.28
2018-06-19T07:37:01.312Z,80.46
2018-06-19T07:38:01.196Z,81.99
2018-06-19T07:39:00.961Z,84.59
2018-06-19T07:40:00.963Z,83.63
2018-06-19T07:41:00.935Z,85.21
2018-06-19T07:42:00.940Z,86.08
2018-06-19T07:43:01.283Z,85.31
2018-06-19T07:44:00.933Z,86.46
2018-06-19T07:45:00.926Z,84.83
2018-06-19T07:46:00.881Z,85.21
2018-06-19T07:47:00.875Z,86.46
2018-06-19T07:48:00.917Z,85.21
2018-06-19T07:49:01.170Z,88.48
2018-06-19T07:50:00.831Z,90.26
2018-06-19T07:51:00.831Z,89.97
2018-06-19T07:52:00.815Z,90.35
2018-06-19T07:53:00.805Z,93.62
2018-06-19T07:54:00.841Z,93.62
2018-06-19T07:55:01.085Z,93.24
2018-06-19T07:57:00.770Z,89.87
2018-06-19T07:58:00.762Z,90.64
2018-06-19T07:59:00.741Z,90.93
2018-06-19T08:00:00.776Z,89.20
2018-06-19T08:01:01.092Z,90.16
2018-06-19T08:02:00.726Z,90.59
2018-06-19T08:04:00.686Z,89.44
2018-06-19T08:05:00.680Z,85.11
2018-06-19T08:06:00.837Z,90.98
2018-06-19T08:07:01.016Z,88.48
2018-06-19T08:08:00.668Z,90.55
2018-06-19T08:09:00.647Z,90.55
2018-06-19T08:10:00.638Z,89.87
2018-06-19T08:11:00.632Z,90.55
2018-06-19T08:12:00.652Z,87.46
2018-06-19T08:13:00.898Z,89.49
2018-06-19T08:14:00.587Z,92.18
2018-06-19T08:15:00.585Z,90.73
2018-06-19T08:16:00.561Z,90.64
2018-06-19T08:17:00.549Z,89.97
2018-06-19T08:18:00.536Z,91.51
2018-06-19T08:19:00.844Z,90.83
2018-06-19T08:20:00.518Z,91.22
2018-06-19T08:21:00.507Z,91.70
2018-06-19T08:22:00.500Z,92.18
2018-06-19T08:24:00.557Z,93.33
2018-06-19T08:25:00.773Z,91.89
2018-06-19T08:26:00.450Z,93.53
2018-06-19T08:27:00.445Z,95.65
2018-06-19T08:28:00.433Z,92.57
2018-06-19T08:29:00.436Z,92.76
2018-06-19T08:30:00.493Z,93.38
2018-06-19T08:31:01.630Z,94.06
2018-06-19T08:32:00.389Z,94.82
2018-06-19T08:33:00.495Z,94.44
2018-06-19T08:34:00.369Z,94.73
2018-06-19T08:35:00.362Z,94.06
2018-06-19T08:36:00.420Z,96.66
2018-06-19T08:37:00.699Z,95.02
2018-06-19T08:38:00.341Z,96.08
2018-06-19T08:39:00.318Z,96.46
2018-06-19T08:40:00.312Z,95.60
2018-06-19T08:41:00.306Z,96.99
2018-06-19T08:42:00.409Z,98.15
2018-06-19T08:43:00.581Z,99.69
2018-06-19T08:44:00.275Z,99.99
2018-06-19T08:45:00.341Z,99.99
2018-06-19T08:46:00.324Z,99.98
2018-06-19T08:47:00.242Z,98.44
2018-06-19T08:48:00.371Z,98.05
2018-06-19T08:49:00.556Z,96.12
2018-06-19T08:50:00.221Z,97.67
2018-06-19T08:51:00.210Z,98.82
2018-06-19T08:52:00.186Z,96.61
2018-06-19T08:53:00.174Z,97.38
2018-06-19T08:54:00.575Z,99.99
2018-06-19T08:55:00.468Z,98.44
2018-06-19T08:56:00.152Z,98.72
2018-06-19T08:57:00.189Z,99.30
2018-06-19T08:58:00.145Z,98.72
2018-06-19T08:59:00.129Z,99.02
2018-06-19T09:00:00.171Z,97.76
2018-06-19T09:01:00.396Z,99.99
2018-06-19T09:02:00.203Z,99.99
2018-06-19T09:03:00.102Z,99.99
2018-06-19T09:04:00.188Z,99.99
2018-06-19T09:05:00.167Z,99.99
2018-06-19T09:06:00.061Z,99.99
2018-06-19T09:07:00.346Z,99.99
2018-06-19T09:08:00.087Z,99.99
2018-06-19T09:09:00.035Z,99.99
2018-06-19T09:10:00.032Z,99.99
2018-06-19T09:11:00.007Z,99.99
2018-06-19T09:12:00.001Z,99.99
2018-06-19T09:13:00.296Z,99.99
2018-06-19T09:13:59.997Z,99.99
2018-06-19T09:14:59.998Z,99.99
2018-06-19T09:15:59.969Z,99.99
2018-06-19T09:17:00.168Z,99.99
2018-06-19T09:17:59.962Z,99.99
2018-06-19T09:19:00.240Z,99.99
2018-06-19T09:21:00.126Z,99.99
2018-06-19T09:21:59.918Z,99.99
2018-06-19T09:22:59.898Z,99.99
2018-06-19T09:25:00.920Z,99.99
2018-06-19T09:26:00.235Z,99.99
2018-06-19T09:27:00.008Z,99.99
2018-06-19T09:28:00.109Z,99.99
2018-06-19T09:29:00.954Z,99.99
2018-06-19T09:29:59.927Z,99.99
2018-06-19T09:31:00.134Z,99.99
2018-06-19T09:31:59.826Z,99.99
2018-06-19T09:33:00.097Z,99.99
2018-06-19T09:34:01.829Z,99.99
2018-06-19T09:34:59.806Z,99.99
2018-06-19T09:35:59.795Z,99.99
2018-06-19T09:37:00.126Z,99.99
2018-06-19T09:37:59.775Z,99.99
2018-06-19T09:39:02.012Z,99.99
2018-06-19T09:39:59.778Z,99.99
2018-06-19T09:40:59.746Z,99.99
2018-06-19T09:41:59.743Z,99.99
2018-06-19T09:43:00.101Z,99.99
2018-06-19T09:43:59.744Z,99.99
2018-06-19T09:44:59.705Z,99.99
2018-06-19T09:45:59.697Z,99.99
2018-06-19T09:46:59.739Z,99.99
2018-06-19T09:47:59.678Z,99.99
2018-06-19T09:49:00.077Z,99.99
2018-06-19T09:49:59.784Z,99.99
2018-06-19T09:50:59.777Z,99.99
2018-06-19T09:51:59.641Z,99.99
2018-06-19T09:52:59.633Z,99.99
2018-06-19T09:53:59.723Z,99.99
2018-06-19T09:55:00.032Z,99.99
2018-06-19T09:55:59.603Z,99.99
2018-06-19T09:56:59.594Z,99.99
2018-06-19T09:57:59.587Z,99.99
2018-06-19T09:58:59.770Z,99.99
2018-06-19T09:59:59.679Z,99.99
2018-06-19T10:00:59.964Z,99.99
2018-06-19T10:01:59.652Z,99.99
2018-06-19T10:02:59.646Z,99.99
2018-06-19T10:03:59.645Z,99.99
2018-06-19T10:04:59.675Z,99.93
2018-06-19T10:05:59.681Z,99.99
2018-06-19T10:06:59.814Z,99.99
2018-06-19T10:07:59.515Z,99.99
2018-06-19T10:08:59.477Z,99.99
2018-06-19T10:09:59.503Z,99.99
2018-06-19T10:10:59.509Z,99.99
2018-06-19T10:11:59.476Z,99.99
2018-06-19T10:12:59.746Z,99.99
2018-06-19T10:13:59.431Z,99.99
2018-06-19T10:14:59.437Z,99.98
2018-06-19T10:15:59.418Z,99.99
2018-06-19T10:16:59.405Z,99.99
2018-06-19T10:17:59.401Z,99.99
2018-06-19T10:18:59.688Z,99.99
2018-06-19T10:19:59.375Z,99.99
2018-06-19T10:20:59.373Z,99.99
2018-06-19T10:21:59.366Z,99.99
2018-06-19T10:22:59.353Z,99.99
2018-06-19T10:23:59.361Z,99.99
2018-06-19T10:24:59.651Z,99.99
2018-06-19T10:25:59.401Z,99.99
2018-06-19T10:26:59.308Z,99.99
2018-06-19T10:27:59.301Z,99.99
2018-06-19T10:28:59.285Z,99.99
2018-06-19T10:29:59.610Z,99.99
2018-06-19T10:30:59.612Z,99.99
2018-06-19T10:31:59.264Z,99.99
2018-06-19T10:32:59.252Z,99.99
2018-06-19T10:33:59.258Z,99.99
2018-06-19T10:34:59.255Z,99.99
2018-06-19T10:35:59.234Z,99.99
2018-06-19T10:36:59.531Z,99.99
2018-06-19T10:38:59.223Z,99.99
2018-06-19T10:39:59.194Z,99.99
2018-06-19T10:40:59.183Z,99.99
2018-06-19T10:41:59.188Z,99.99
2018-06-19T10:42:59.478Z,99.99
2018-06-19T10:43:59.169Z,99.99
2018-06-19T10:44:59.151Z,99.99
2018-06-19T10:45:59.243Z,99.99
2018-06-19T10:46:59.246Z,99.99
2018-06-19T10:47:59.195Z,99.99
2018-06-19T10:48:59.422Z,99.99
2018-06-19T10:49:59.114Z,99.99
2018-06-19T10:50:59.127Z,99.99
2018-06-19T10:51:59.097Z,99.99
2018-06-19T10:52:59.086Z,99.99
2018-06-19T10:53:59.077Z,99.99
2018-06-19T10:54:59.075Z,99.99
2018-06-19T10:55:59.366Z,99.99
2018-06-19T10:56:59.070Z,99.99
2018-06-19T10:57:59.059Z,99.99
2018-06-19T10:58:59.093Z,99.99
2018-06-19T10:59:59.035Z,99.99
2018-06-19T11:00:59.037Z,99.99
2018-06-19T11:01:59.386Z,99.99
2018-06-19T11:02:59.021Z,99.99
2018-06-19T11:03:59.017Z,99.99
2018-06-19T11:04:59.031Z,99.99
2018-06-19T11:05:58.994Z,99.99
2018-06-19T11:06:58.991Z,99.99
2018-06-19T11:07:59.279Z,99.99
2018-06-19T11:08:58.991Z,99.99
2018-06-19T11:09:58.970Z,99.99
2018-06-19T11:10:58.962Z,99.99
2018-06-19T11:11:58.952Z,99.99
2018-06-19T11:12:58.951Z,99.99
2018-06-19T11:13:59.250Z,99.99
2018-06-19T11:14:58.934Z,99.99
2018-06-19T11:15:58.928Z,99.99
2018-06-19T11:16:58.924Z,99.99
2018-06-19T11:17:58.923Z,99.99
2018-06-19T11:20:00.326Z,99.99
2018-06-19T11:20:59.229Z,99.99
2018-06-19T11:21:59.214Z,99.99
2018-06-19T11:22:59.199Z,99.99
2018-06-19T11:23:58.897Z,99.99
2018-06-19T11:24:59.239Z,99.99
2018-06-19T11:25:58.856Z,99.99
2018-06-19T11:26:58.858Z,99.99
2018-06-19T11:27:58.894Z,99.99
2018-06-19T11:28:58.863Z,99.99
2018-06-19T11:29:58.829Z,99.99
2018-06-19T11:30:59.154Z,99.99
2018-06-19T11:31:58.790Z,99.99
2018-06-19T11:32:58.965Z,99.99
2018-06-19T11:33:58.780Z,99.99
2018-06-19T11:34:58.872Z,99.99
2018-06-19T11:35:58.870Z,99.99
2018-06-19T11:36:59.052Z,99.99
2018-06-19T11:37:58.741Z,99.99
2018-06-19T11:38:58.741Z,99.99
2018-06-19T11:39:58.731Z,99.99
2018-06-19T11:40:58.715Z,99.99
2018-06-19T11:41:58.707Z,99.99
2018-06-19T11:42:59.000Z,99.99
2018-06-19T11:43:58.750Z,99.99
2018-06-19T11:44:58.694Z,99.99
2018-06-19T11:45:58.678Z,99.99
2018-06-19T11:46:58.664Z,99.99
2018-06-19T11:47:58.682Z,99.99
2018-06-19T11:48:58.951Z,99.99
2018-06-19T11:49:58.691Z,99.99
2018-06-19T11:50:58.768Z,99.99
2018-06-19T11:51:58.633Z,99.99
2018-06-19T11:52:58.627Z,99.99
2018-06-19T11:53:58.645Z,99.99
2018-06-19T11:54:59.041Z,99.99
2018-06-19T11:55:58.610Z,99.99
2018-06-19T11:56:58.644Z,99.99
2018-06-19T11:57:58.585Z,99.99
2018-06-19T11:58:58.584Z,99.99
2018-06-19T11:59:58.567Z,99.99
2018-06-19T12:00:58.859Z,99.99
2018-06-19T12:01:58.547Z,99.99
2018-06-19T12:02:58.544Z,99.99
2018-06-19T12:03:58.559Z,99.99
2018-06-19T12:04:58.530Z,99.99
2018-06-19T12:05:58.521Z,99.99
2018-06-19T12:06:58.832Z,99.99
2018-06-19T12:07:58.501Z,99.99
2018-06-19T12:08:58.486Z,99.99
2018-06-19T12:09:58.480Z,99.99
2018-06-19T12:10:58.476Z,99.99
2018-06-19T12:11:58.475Z,99.99
2018-06-19T12:12:58.571Z,99.99
2018-06-19T12:13:58.763Z,99.99
2018-06-19T12:14:58.451Z,99.99
2018-06-19T12:15:58.489Z,99.99
2018-06-19T12:16:58.494Z,99.99
2018-06-19T12:17:58.420Z,99.99
2018-06-19T12:18:58.425Z,99.99
2018-06-19T12:19:58.763Z,99.99
2018-06-19T12:20:58.395Z,99.99
2018-06-19T12:21:58.545Z,99.99
2018-06-19T12:22:58.385Z,99.99
2018-06-19T12:23:58.378Z,99.99
2018-06-19T12:24:58.382Z,99.99
2018-06-19T12:25:58.652Z,99.99
2018-06-19T12:26:58.348Z,99.99
2018-06-19T12:27:58.867Z,99.99
2018-06-19T12:28:58.331Z,99.99
2018-06-19T12:29:58.326Z,99.99
2018-06-19T12:30:58.341Z,99.99
2018-06-19T12:31:58.619Z,99.99
2018-06-19T12:32:58.319Z,99.99
2018-06-19T12:33:58.301Z,99.99
2018-06-19T12:34:58.338Z,99.99
2018-06-19T12:35:58.284Z,99.99
2018-06-19T12:36:58.321Z,99.99
2018-06-19T12:37:58.557Z,99.99
2018-06-19T12:38:58.357Z,99.99
2018-06-19T12:39:58.361Z,99.99
2018-06-19T12:40:58.350Z,99.99
2018-06-19T12:41:58.227Z,99.99
2018-06-19T12:42:58.237Z,99.99
2018-06-19T12:43:58.535Z,99.99
2018-06-19T12:44:58.204Z,99.99
2018-06-19T12:45:58.270Z,99.35
2018-06-19T12:46:58.176Z,99.99
2018-06-19T12:47:58.184Z,99.84
2018-06-19T12:48:58.210Z,99.99
2018-06-19T12:49:58.503Z,99.55
2018-06-19T12:50:58.150Z,99.99
2018-06-19T12:51:58.136Z,99.60
2018-06-19T12:52:58.120Z,99.99
2018-06-19T12:54:58.107Z,99.99
2018-06-19T12:55:58.394Z,99.99
2018-06-19T12:56:58.092Z,99.99
2018-06-19T12:57:58.093Z,99.99
2018-06-19T12:58:58.095Z,99.99
2018-06-19T13:00:58.189Z,99.99
2018-06-19T13:01:58.522Z,99.99
2018-06-19T13:02:58.266Z,99.99
2018-06-19T13:03:58.116Z,99.99
2018-06-19T13:04:58.030Z,99.99
2018-06-19T13:05:58.092Z,99.99
2018-06-19T13:06:58.096Z,99.99
2018-06-19T13:07:58.323Z,99.99
2018-06-19T13:08:58.064Z,99.99
2018-06-19T13:09:58.059Z,99.99
2018-06-19T13:10:57.971Z,99.99
2018-06-19T13:11:58.012Z,99.99
2018-06-19T13:12:58.003Z,99.99
2018-06-19T13:13:58.244Z,99.99
2018-06-19T13:14:57.966Z,99.99
2018-06-19T13:15:57.936Z,99.99
2018-06-19T13:16:57.917Z,99.99
2018-06-19T13:17:57.919Z,99.99
2018-06-19T13:18:57.902Z,99.99
2018-06-19T13:19:58.227Z,99.99
2018-06-19T13:20:57.883Z,99.99
2018-06-19T13:21:57.895Z,99.99
2018-06-19T13:22:57.868Z,99.99
2018-06-19T13:23:57.869Z,99.99
2018-06-19T13:24:57.861Z,99.99
2018-06-19T13:25:58.149Z,99.99
2018-06-19T13:26:57.842Z,99.99
2018-06-19T13:27:57.824Z,99.99
2018-06-19T13:28:58.076Z,99.99
2018-06-19T13:29:58.921Z,99.99
2018-06-19T13:30:59.059Z,99.99
2018-06-19T13:31:58.903Z,99.99
2018-06-19T13:33:02.152Z,99.99
2018-06-19T13:33:58.708Z,99.99
2018-06-19T13:34:57.793Z,99.99
2018-06-19T13:35:57.759Z,99.65
2018-06-19T13:36:57.795Z,98.78
2018-06-19T13:37:58.044Z,91.44
2018-06-19T13:38:57.733Z,90.72
2018-06-19T13:39:57.720Z,84.75
2018-06-19T13:40:57.715Z,81.72
2018-06-19T13:41:57.701Z,77.86
2018-06-19T13:42:57.695Z,68.44
2018-06-19T13:43:57.978Z,56.32
2018-06-19T13:44:57.671Z,49.94
2018-06-19T13:45:57.669Z,44.93
2018-06-19T13:46:57.654Z,32.14
2018-06-19T13:47:57.637Z,27.13
2018-06-19T13:48:57.627Z,23.47
2018-06-19T13:49:57.925Z,22.32
2018-06-19T13:50:57.615Z,19.72